Aérodrome :
LOGIN :

S'inscrire | Disclaimer

   EN    FR    IT 

 










Légende :    VFR   VFR Marginal   IFR   IFR Intensif   IFR Très Intensif
Visi : 
Plafond : 
>= 8 km
>= 3000ft
5 à 8 km
1000 à 3000 ft
1500m à 5 km
500 à 1000 ft
800 à 1500m
200 à 500 ft
< 800m
< 200 ft
Symboles :   Orages  Brouillard  Fortes neiges  Fortes précipitations  Vent > 20 kt
SIGMETs :   Divers  Orages  Givrage  Turbulence  Onde Orograph.  Cendres Volcan.







- Altitude de l'aérodrome : 459 ft
- Code IATA : CER
- Voir les cartes d'approche


LFRC - Cherbourg / Maupertus

DERNIER METAR :
  • 211830Z AUTO 35004KT 310V010 CAVOK 13/12 Q1028

METARs EXPIRÉS :
  • 211800Z AUTO 36004KT CAVOK 12/11 Q1028
  • 211730Z AUTO 00000KT CAVOK 13/11 Q1027 TEMPO 2000 BR BKN002
  • 211700Z AUTO 36002KT CAVOK 14/11 Q1027 TEMPO 2000 BR BKN002
  • 211630Z AUTO 36003KT CAVOK 15/11 Q1027 TEMPO 2000 BR BKN002
  • 211600Z AUTO 36003KT CAVOK 15/11 Q1027 NOSIG

TAF TAF LFRC
Valide du 21 à 15h jusqu'au 22 à 00h UTC


211400Z 2115/2124 03005KT CAVOK
TEMPO 2118/2124 2000 BR BKN002
PROB30
TEMPO 2120/2124 0500 FG VV///
BECMG 2121/2124 02013KT
Pas de NOTAMs connus pour ce terrain.



MET'MAP, la Météo Aéronautique d'un coup d'oeil ! - Copyright ORBIFLY Décembre 2007 - Disclaimer

ORBIFLY MET'MAP TEAM :

Programmation & Développement : Alexandra Zaïnal
Conception & Développement : Baudouin d'Aumeries
Co-Programmation & Développement : Marc-Olivier Méhu
Soutien technique & logistique : Manuel Goepfert

Contact : metmap@orbifly.com




SOURCES & CREDITS :

   NOAA